createdAt,value
2019-01-29T00:01:39.867Z,97198.20
2019-01-29T00:04:08.613Z,97196.58
2019-01-29T00:06:37.394Z,97195.23
2019-01-29T00:09:09.077Z,97204.39
2019-01-29T00:11:37.839Z,97201.70
2019-01-29T00:14:06.308Z,97205.98
2019-01-29T00:16:34.761Z,97201.12
2019-01-29T00:19:03.188Z,97205.17
2019-01-29T00:21:31.939Z,97208.94
2019-01-29T00:24:00.366Z,97217.26
2019-01-29T00:26:28.818Z,97215.38
2019-01-29T00:28:57.247Z,97218.07
2019-01-29T00:31:25.960Z,97222.09
2019-01-29T00:33:54.682Z,97225.33
2019-01-29T00:36:23.472Z,97226.13
2019-01-29T00:38:52.255Z,97228.56
2019-01-29T00:41:21.061Z,97235.02
2019-01-29T00:43:49.523Z,97232.05
2019-01-29T00:46:18.315Z,97239.34
2019-01-29T00:48:46.778Z,97234.75
2019-01-29T00:51:16.714Z,97233.40
2019-01-29T00:53:45.498Z,97240.41
2019-01-29T00:56:14.286Z,97242.02
2019-01-29T00:58:42.730Z,97247.41
2019-01-29T01:01:11.154Z,97245.49
2019-01-29T01:03:39.600Z,97253.30
2019-01-29T01:06:08.309Z,97251.96
2019-01-29T01:08:38.445Z,97247.64
2019-01-29T01:11:06.996Z,97257.06
2019-01-29T01:13:35.694Z,97261.38
2019-01-29T01:16:04.127Z,97259.75
2019-01-29T01:18:33.486Z,97261.62
2019-01-29T01:21:01.923Z,97265.94
2019-01-29T01:23:30.616Z,97275.88
2019-01-29T01:25:59.327Z,97282.88
2019-01-29T01:28:27.766Z,97283.39
2019-01-29T01:30:56.197Z,97281.80
2019-01-29T01:33:24.639Z,97284.72
2019-01-29T01:35:53.088Z,97291.98
2019-01-29T01:38:21.534Z,97287.17
2019-01-29T01:40:50.206Z,97288.50
2019-01-29T01:43:19.000Z,97293.88
2019-01-29T01:45:47.432Z,97293.86
2019-01-29T01:48:15.956Z,97296.00
2019-01-29T01:50:44.385Z,97300.58
2019-01-29T01:53:13.127Z,97300.58
2019-01-29T01:55:41.871Z,97303.28
2019-01-29T01:58:10.320Z,97303.80
2019-01-29T02:00:39.087Z,97304.87
2019-01-29T02:03:07.539Z,97305.97
2019-01-29T02:05:35.970Z,97307.03
2019-01-29T02:08:04.423Z,97304.85
2019-01-29T02:10:32.873Z,97309.98
2019-01-29T02:13:01.304Z,97310.77
2019-01-29T02:15:29.747Z,97312.39
2019-01-29T02:17:58.186Z,97315.62
2019-01-29T02:20:26.631Z,97318.81
2019-01-29T02:22:55.148Z,97325.30
2019-01-29T02:25:24.198Z,97325.57
2019-01-29T02:27:52.624Z,97328.27
2019-01-29T02:30:22.944Z,97331.78
2019-01-29T02:32:51.697Z,97334.47
2019-01-29T02:35:20.821Z,97329.91
2019-01-29T02:37:49.640Z,97331.80
2019-01-29T02:40:20.507Z,97330.45
2019-01-29T02:42:48.941Z,97338.27
2019-01-29T02:45:19.116Z,97337.70
2019-01-29T02:47:47.599Z,97334.49
2019-01-29T02:50:16.115Z,97331.56
2019-01-29T02:52:45.224Z,97337.73
2019-01-29T02:55:14.070Z,97335.59
2019-01-29T02:57:42.809Z,97338.01
2019-01-29T03:00:14.640Z,97340.42
2019-01-29T03:02:43.067Z,97341.77
2019-01-29T03:05:12.192Z,97347.16
2019-01-29T03:07:42.795Z,97340.42
2019-01-29T03:10:12.900Z,97347.97
2019-01-29T03:12:41.410Z,97351.20
2019-01-29T03:15:12.808Z,97347.97
2019-01-29T03:17:41.226Z,97347.73
2019-01-29T03:20:10.235Z,97353.66
2019-01-29T03:22:38.664Z,97357.94
2019-01-29T03:25:08.604Z,97366.01
2019-01-29T03:27:37.524Z,97362.52
2019-01-29T03:30:07.297Z,97368.16
2019-01-29T03:32:36.218Z,97369.50
2019-01-29T03:35:05.793Z,97371.66
2019-01-29T03:37:34.264Z,97377.58
2019-01-29T03:40:02.998Z,97370.59
2019-01-29T03:42:31.463Z,97371.13
2019-01-29T03:44:59.900Z,97371.94
2019-01-29T03:47:28.334Z,97372.19
2019-01-29T03:49:56.780Z,97375.41
2019-01-29T03:52:25.510Z,97379.72
2019-01-29T03:54:53.960Z,97377.55
2019-01-29T03:57:22.399Z,97377.30
2019-01-29T03:59:50.831Z,97383.45
2019-01-29T04:02:19.633Z,97386.70
2019-01-29T04:04:48.331Z,97386.70
2019-01-29T04:07:16.787Z,97388.30
2019-01-29T04:09:45.291Z,97390.98
2019-01-29T04:12:13.727Z,97390.45
2019-01-29T04:14:42.451Z,97381.56
2019-01-29T04:17:10.896Z,97390.47
2019-01-29T04:19:39.320Z,97388.05
2019-01-29T04:22:07.811Z,97391.27
2019-01-29T04:24:36.604Z,97387.77
2019-01-29T04:27:05.336Z,97388.06
2019-01-29T04:29:34.040Z,97392.09
2019-01-29T04:32:02.486Z,97396.66
2019-01-29T04:34:31.579Z,97394.78
2019-01-29T04:37:00.306Z,97393.43
2019-01-29T04:39:29.090Z,97393.43
2019-01-29T04:41:57.875Z,97401.48
2019-01-29T04:44:26.321Z,97399.04
2019-01-29T04:46:55.011Z,97400.67
2019-01-29T04:49:23.739Z,97411.70
2019-01-29T04:51:52.182Z,97417.36
2019-01-29T04:54:20.642Z,97414.14
2019-01-29T04:56:49.055Z,97427.08
2019-01-29T04:59:17.554Z,97424.91
2019-01-29T05:01:46.010Z,97430.28
2019-01-29T05:04:14.449Z,97434.33
2019-01-29T05:06:42.885Z,97433.80
2019-01-29T05:09:11.685Z,97434.05
2019-01-29T05:11:40.979Z,97429.20
2019-01-29T05:14:09.418Z,97429.77
2019-01-29T05:16:37.859Z,97429.48
2019-01-29T05:19:06.306Z,97432.98
2019-01-29T05:21:34.754Z,97431.87
2019-01-29T05:24:06.764Z,97428.95
2019-01-29T05:26:33.978Z,97430.53
2019-01-29T05:29:02.442Z,97428.95
2019-01-29T05:31:31.404Z,97427.84
2019-01-29T05:33:59.834Z,97427.84
2019-01-29T05:36:28.264Z,97430.81
2019-01-29T05:38:56.715Z,97431.36
2019-01-29T05:41:25.166Z,97431.11
2019-01-29T05:43:53.865Z,97432.70
2019-01-29T05:46:22.291Z,97438.38
2019-01-29T05:48:51.036Z,97440.80
2019-01-29T05:51:19.811Z,97442.94
2019-01-29T05:53:48.503Z,97441.59
2019-01-29T05:56:16.931Z,97441.59
2019-01-29T05:58:45.706Z,97448.33
2019-01-29T06:01:14.468Z,97442.94
2019-01-29T06:03:42.903Z,97444.01
2019-01-29T06:06:11.650Z,97448.05
2019-01-29T06:08:40.448Z,97446.45
2019-01-29T06:11:11.929Z,97446.45
2019-01-29T06:13:40.987Z,97452.64
2019-01-29T06:16:09.739Z,97451.84
2019-01-29T06:18:38.186Z,97452.89
2019-01-29T06:21:07.352Z,97460.72
2019-01-29T06:23:35.808Z,97460.72
2019-01-29T06:26:04.644Z,97453.98
2019-01-29T06:28:33.086Z,97457.74
2019-01-29T06:31:02.079Z,97460.98
2019-01-29T06:33:30.519Z,97462.07
2019-01-29T06:36:02.048Z,97471.21
2019-01-29T06:38:30.477Z,97467.70
2019-01-29T06:40:58.915Z,97468.52
2019-01-29T06:43:27.470Z,97470.67
2019-01-29T06:45:56.159Z,97473.36
2019-01-29T06:48:24.650Z,97469.05
2019-01-29T06:50:53.171Z,97471.73
2019-01-29T06:53:21.578Z,97476.88
2019-01-29T06:55:50.280Z,97472.28
2019-01-29T06:58:18.715Z,97481.98
2019-01-29T07:00:47.158Z,97478.23
2019-01-29T07:03:15.623Z,97486.30
2019-01-29T07:05:44.369Z,97480.35
2019-01-29T07:08:12.808Z,97485.21
2019-01-29T07:10:41.574Z,97487.66
2019-01-29T07:13:10.362Z,97486.84
2019-01-29T07:15:56.482Z,97490.31
2019-01-29T07:18:33.620Z,97487.38
2019-01-29T07:21:03.730Z,97480.11
2019-01-29T07:23:32.170Z,97486.84
2019-01-29T07:26:00.602Z,97490.34
2019-01-29T07:28:29.388Z,97492.46
2019-01-29T07:30:57.827Z,97495.97
2019-01-29T07:33:26.578Z,97511.05
2019-01-29T07:35:55.667Z,97500.53
2019-01-29T07:38:24.095Z,97507.26
2019-01-29T07:40:52.843Z,97503.22
2019-01-29T07:43:21.275Z,97503.50
2019-01-29T07:45:49.970Z,97502.68
2019-01-29T07:48:18.398Z,97498.65
2019-01-29T07:50:47.470Z,97486.28
2019-01-29T07:53:15.925Z,97492.19
2019-01-29T07:55:44.349Z,97497.05
2019-01-29T07:58:12.776Z,97492.44
2019-01-29T08:00:42.291Z,97504.02
2019-01-29T08:03:11.411Z,97498.92
2019-01-29T08:05:40.144Z,97502.13
2019-01-29T08:08:08.886Z,97506.16
2019-01-29T08:10:37.885Z,97503.20
2019-01-29T08:13:06.708Z,97511.80
2019-01-29T08:15:35.107Z,97515.56
2019-01-29T08:18:03.833Z,97509.37
2019-01-29T08:20:32.300Z,97509.92
2019-01-29T08:23:00.738Z,97510.98
2019-01-29T08:25:29.194Z,97514.73
2019-01-29T08:27:58.008Z,97519.06
2019-01-29T08:30:26.446Z,97520.70
2019-01-29T08:32:54.876Z,97522.28
2019-01-29T08:35:23.614Z,97524.44
2019-01-29T08:37:52.037Z,97529.83
2019-01-29T08:40:20.775Z,97530.36
2019-01-29T08:42:49.769Z,97528.72
2019-01-29T08:45:18.233Z,97531.63
2019-01-29T08:47:46.953Z,97533.79
2019-01-29T08:50:18.394Z,97530.84
2019-01-29T08:52:47.180Z,97531.39
2019-01-29T08:55:15.874Z,97528.42
2019-01-29T08:57:44.648Z,97523.58
2019-01-29T09:00:14.385Z,97525.72
2019-01-29T09:02:42.837Z,97531.90
2019-01-29T09:05:11.570Z,97531.09
2019-01-29T09:07:40.619Z,97529.19
2019-01-29T09:10:10.784Z,97529.94
2019-01-29T09:12:39.276Z,97528.53
2019-01-29T09:15:09.999Z,97531.80
2019-01-29T09:17:38.436Z,97529.69
2019-01-29T09:20:07.077Z,97523.50
2019-01-29T09:22:35.802Z,97530.27
2019-01-29T09:25:04.589Z,97521.70
2019-01-29T09:27:33.355Z,97520.63
2019-01-29T09:30:01.789Z,97522.78
2019-01-29T09:32:30.232Z,97520.34
2019-01-29T09:34:58.925Z,97525.48
2019-01-29T09:37:27.674Z,97518.48
2019-01-29T09:39:56.131Z,97522.48
2019-01-29T09:42:25.195Z,97522.21
2019-01-29T09:44:53.687Z,97516.83
2019-01-29T09:47:22.136Z,97520.77
2019-01-29T09:49:50.842Z,97519.39
2019-01-29T09:52:19.633Z,97519.78
2019-01-29T09:54:48.076Z,97515.60
2019-01-29T09:57:16.539Z,97517.81
2019-01-29T09:59:45.030Z,97518.38
2019-01-29T10:02:13.477Z,97521.89
2019-01-29T10:04:42.225Z,97523.76
2019-01-29T10:07:10.713Z,97523.53
2019-01-29T10:09:39.111Z,97513.38
2019-01-29T10:12:07.547Z,97522.02
2019-01-29T10:14:35.972Z,97518.95
2019-01-29T10:17:04.417Z,97514.81
2019-01-29T10:19:33.109Z,97516.08
2019-01-29T10:22:01.905Z,97514.36
2019-01-29T10:24:30.331Z,97501.98
2019-01-29T10:26:58.765Z,97506.56
2019-01-29T10:29:27.196Z,97502.91
2019-01-29T10:31:55.639Z,97501.08
2019-01-29T10:34:24.366Z,97497.85
2019-01-29T10:36:52.809Z,97504.50
2019-01-29T10:39:21.582Z,97500.64
2019-01-29T10:41:50.025Z,97497.00
2019-01-29T10:44:18.452Z,97499.70
2019-01-29T10:46:47.139Z,97494.32
2019-01-29T10:49:15.585Z,97486.77
2019-01-29T10:51:44.393Z,97489.50
2019-01-29T10:54:12.819Z,97487.67
2019-01-29T10:56:41.266Z,97487.00
2019-01-29T10:59:10.034Z,97490.22
2019-01-29T11:01:38.475Z,97492.92
2019-01-29T11:04:07.378Z,97489.33
2019-01-29T11:06:36.164Z,97488.76
2019-01-29T11:09:08.212Z,97483.63
2019-01-29T11:11:35.919Z,97489.20
2019-01-29T11:14:04.317Z,97486.34
2019-01-29T11:16:32.771Z,97474.39
2019-01-29T11:19:03.282Z,97480.58
2019-01-29T11:21:31.614Z,97475.53
2019-01-29T11:24:00.065Z,97477.72
2019-01-29T11:26:28.494Z,97469.87
2019-01-29T11:28:57.039Z,97471.73
2019-01-29T11:31:25.697Z,97461.74
2019-01-29T11:33:54.129Z,97455.40
2019-01-29T11:36:22.797Z,97456.24
2019-01-29T11:38:51.229Z,97456.15
2019-01-29T11:41:19.882Z,97454.28
2019-01-29T11:43:48.385Z,97448.71
2019-01-29T11:46:16.825Z,97452.66
2019-01-29T11:48:45.282Z,97446.31
2019-01-29T11:51:13.707Z,97450.19
2019-01-29T11:53:42.455Z,97449.55
2019-01-29T11:56:11.150Z,97451.02
2019-01-29T11:58:39.585Z,97451.27
2019-01-29T12:01:13.140Z,97442.69
2019-01-29T12:03:41.830Z,97442.14
2019-01-29T12:06:10.268Z,97434.57
2019-01-29T12:08:38.717Z,97435.09
2019-01-29T12:11:07.400Z,97435.66
2019-01-29T12:13:35.891Z,97426.52
2019-01-29T12:16:04.342Z,97429.52
2019-01-29T12:18:32.805Z,97426.98
2019-01-29T12:21:01.629Z,97434.23
2019-01-29T12:23:30.087Z,97426.38
2019-01-29T12:25:58.847Z,97431.17
2019-01-29T12:28:27.286Z,97428.50
2019-01-29T12:30:56.012Z,97424.80
2019-01-29T12:33:24.447Z,97424.42
2019-01-29T12:35:54.166Z,97417.34
2019-01-29T12:38:23.191Z,97413.45
2019-01-29T12:40:51.670Z,97408.70
2019-01-29T12:43:20.107Z,97410.27
2019-01-29T12:45:48.845Z,97409.99
2019-01-29T12:48:17.340Z,97409.00
2019-01-29T12:50:51.229Z,97404.06
2019-01-29T12:53:22.275Z,97410.88
2019-01-29T12:55:50.746Z,97408.45
2019-01-29T12:58:19.168Z,97400.98
2019-01-29T13:00:53.451Z,97393.66
2019-01-29T13:03:21.883Z,97399.06
2019-01-29T13:05:50.314Z,97399.06
2019-01-29T13:08:21.583Z,97391.08
2019-01-29T13:10:50.048Z,97389.67
2019-01-29T13:13:18.827Z,97389.08
2019-01-29T13:15:47.309Z,97388.48
2019-01-29T13:18:15.742Z,97379.78
2019-01-29T13:20:44.190Z,97381.28
2019-01-29T13:23:12.619Z,97369.38
2019-01-29T13:25:41.409Z,97375.61
2019-01-29T13:28:09.843Z,97372.70
2019-01-29T13:30:38.289Z,97370.78
2019-01-29T13:33:09.378Z,97374.21
2019-01-29T13:35:37.827Z,97369.27
2019-01-29T13:38:06.933Z,97372.67
2019-01-29T13:40:36.077Z,97369.61
2019-01-29T13:43:05.201Z,97368.22
2019-01-29T13:45:33.644Z,97365.35
2019-01-29T13:48:02.062Z,97371.56
2019-01-29T13:50:33.135Z,97363.52
2019-01-29T13:53:02.193Z,97361.47
2019-01-29T13:55:30.629Z,97356.72
2019-01-29T13:57:59.050Z,97355.23
2019-01-29T14:00:29.609Z,97353.31
2019-01-29T14:02:58.045Z,97334.60
2019-01-29T14:05:26.522Z,97338.66
2019-01-29T14:07:54.952Z,97332.40
2019-01-29T14:10:23.704Z,97332.83
2019-01-29T14:12:52.504Z,97340.64
2019-01-29T14:15:38.165Z,97339.98
2019-01-29T14:18:08.768Z,97327.77
2019-01-29T14:20:37.909Z,97333.20
2019-01-29T14:23:07.979Z,97343.75
2019-01-29T14:25:36.433Z,97328.98
2019-01-29T14:28:04.885Z,97327.98
2019-01-29T14:30:33.318Z,97327.08
2019-01-29T14:33:01.736Z,97328.36
2019-01-29T14:35:30.425Z,97331.07
2019-01-29T14:38:46.286Z,97324.75
2019-01-29T14:41:15.997Z,97321.16
2019-01-29T14:43:50.374Z,97324.64
2019-01-29T14:46:19.511Z,97317.90
2019-01-29T14:48:47.942Z,97325.48
2019-01-29T14:51:16.372Z,97319.05
2019-01-29T14:53:44.802Z,97315.25
2019-01-29T14:56:13.235Z,97312.85
2019-01-29T14:58:42.156Z,97316.34
2019-01-29T15:01:10.626Z,97311.53
2019-01-29T15:03:39.067Z,97304.00
2019-01-29T15:06:07.797Z,97300.23
2019-01-29T15:08:36.237Z,97296.99
2019-01-29T15:11:04.929Z,97294.59
2019-01-29T15:13:33.365Z,97296.48
2019-01-29T15:16:09.513Z,97299.98
2019-01-29T15:18:41.509Z,97297.59
2019-01-29T15:21:09.959Z,97299.73
2019-01-29T15:23:38.394Z,97293.62
2019-01-29T15:26:06.847Z,97296.06
2019-01-29T15:28:35.275Z,97299.84
2019-01-29T15:31:03.973Z,97291.23
2019-01-29T15:33:32.417Z,97285.87
2019-01-29T15:36:00.855Z,97285.89
2019-01-29T15:38:29.626Z,97284.81
2019-01-29T15:40:58.070Z,97279.73
2019-01-29T15:43:26.501Z,97282.27
2019-01-29T15:45:54.941Z,97275.05
2019-01-29T15:48:24.062Z,97278.92
2019-01-29T15:50:52.847Z,97274.69
2019-01-29T15:53:21.304Z,97267.78
2019-01-29T15:55:50.025Z,97269.75
2019-01-29T15:58:18.801Z,97270.37
2019-01-29T16:00:47.464Z,97261.26
2019-01-29T16:03:15.909Z,97261.58
2019-01-29T16:05:44.335Z,97257.27
2019-01-29T16:08:12.790Z,97254.31
2019-01-29T16:10:41.916Z,97258.66
2019-01-29T16:13:10.356Z,97258.14
2019-01-29T16:15:39.194Z,97252.22
2019-01-29T16:18:07.634Z,97249.77
2019-01-29T16:20:36.070Z,97248.94
2019-01-29T16:23:06.370Z,97243.83
2019-01-29T16:25:35.012Z,97236.06
2019-01-29T16:28:03.457Z,97237.72
2019-01-29T16:30:31.943Z,97237.46
2019-01-29T16:33:00.392Z,97240.73
2019-01-29T16:35:30.509Z,97240.80
2019-01-29T16:37:58.980Z,97235.18
2019-01-29T16:40:27.813Z,97231.44
2019-01-29T16:42:56.693Z,97237.92
2019-01-29T16:45:27.975Z,97238.48
2019-01-29T16:47:56.510Z,97226.14
2019-01-29T16:50:24.978Z,97221.60
2019-01-29T16:52:53.421Z,97226.20
2019-01-29T16:55:21.892Z,97223.00
2019-01-29T16:57:50.346Z,97219.80
2019-01-29T17:00:29.027Z,97216.02
2019-01-29T17:02:57.535Z,97213.61
2019-01-29T17:05:26.015Z,97219.52
2019-01-29T17:07:54.538Z,97217.88
2019-01-29T17:10:23.077Z,97211.45
2019-01-29T17:12:51.509Z,97214.11
2019-01-29T17:15:22.411Z,97204.16
2019-01-29T17:17:50.868Z,97214.61
2019-01-29T17:20:22.072Z,97211.64
2019-01-29T17:22:50.550Z,97201.41
2019-01-29T17:25:18.983Z,97201.41
2019-01-29T17:27:47.766Z,97208.95
2019-01-29T17:30:30.810Z,97193.39
2019-01-29T17:32:59.264Z,97197.97
2019-01-29T17:35:27.734Z,97197.17
2019-01-29T17:37:56.235Z,97197.96
2019-01-29T17:40:25.015Z,97204.12
2019-01-29T17:42:53.468Z,97196.87
2019-01-29T17:45:25.312Z,97194.44
2019-01-29T17:47:53.837Z,97190.38
2019-01-29T17:50:24.398Z,97194.98
2019-01-29T17:52:53.163Z,97189.02
2019-01-29T17:55:22.442Z,97190.89
2019-01-29T17:57:51.255Z,97193.82
2019-01-29T18:00:23.362Z,97186.28
2019-01-29T18:02:51.071Z,97184.94
2019-01-29T18:05:19.459Z,97186.79
2019-01-29T18:07:48.920Z,97187.59
2019-01-29T18:10:17.379Z,97180.31
2019-01-29T18:12:46.133Z,97186.23
2019-01-29T18:15:17.344Z,97175.45
2019-01-29T18:17:48.189Z,97175.47
2019-01-29T18:20:16.415Z,97172.84
2019-01-29T18:22:44.868Z,97172.35
2019-01-29T18:25:13.560Z,97166.52
2019-01-29T18:27:42.044Z,97164.14
2019-01-29T18:30:13.995Z,97167.96
2019-01-29T18:32:42.428Z,97162.62
2019-01-29T18:35:11.152Z,97160.23
2019-01-29T18:37:39.577Z,97158.09
2019-01-29T18:40:09.684Z,97162.68
2019-01-29T18:42:38.436Z,97152.73
2019-01-29T18:45:07.288Z,97154.36
2019-01-29T18:47:35.744Z,97144.69
2019-01-29T18:50:05.057Z,97142.82
2019-01-29T18:52:33.485Z,97150.59
2019-01-29T18:55:02.376Z,97147.91
2019-01-29T18:57:30.780Z,97144.98
2019-01-29T18:59:59.225Z,97143.37
2019-01-29T19:02:27.921Z,97138.30
2019-01-29T19:04:56.375Z,97136.95
2019-01-29T19:07:24.798Z,97135.08
2019-01-29T19:09:53.263Z,97139.09
2019-01-29T19:12:21.765Z,97127.54
2019-01-29T19:14:50.295Z,97126.20
2019-01-29T19:17:19.016Z,97126.44
2019-01-29T19:19:47.474Z,97117.61
2019-01-29T19:22:16.278Z,97117.84
2019-01-29T19:24:44.799Z,97124.53
2019-01-29T19:27:13.233Z,97118.89
2019-01-29T19:29:41.685Z,97120.50
2019-01-29T19:32:10.532Z,97117.03
2019-01-29T19:34:39.295Z,97118.11
2019-01-29T19:37:07.724Z,97113.81
2019-01-29T19:39:36.464Z,97115.45
2019-01-29T19:42:04.891Z,97107.14
2019-01-29T19:44:33.636Z,97114.67
2019-01-29T19:47:02.091Z,97109.32
2019-01-29T19:49:30.507Z,97112.82
2019-01-29T19:51:59.248Z,97114.94
2019-01-29T19:54:27.675Z,97104.78
2019-01-29T19:56:56.454Z,97109.06
2019-01-29T19:59:24.902Z,97107.20
2019-01-29T20:01:53.338Z,97099.69
2019-01-29T20:04:22.007Z,97101.30
2019-01-29T20:06:50.442Z,97106.39
2019-01-29T20:09:18.862Z,97101.84
2019-01-29T20:11:47.323Z,97103.42
2019-01-29T20:14:15.760Z,97106.67
2019-01-29T20:16:44.221Z,97102.36
2019-01-29T20:19:12.652Z,97100.73
2019-01-29T20:21:41.350Z,97098.33
2019-01-29T20:24:09.783Z,97098.33
2019-01-29T20:26:38.243Z,97098.08
2019-01-29T20:29:06.676Z,97101.30
2019-01-29T20:31:35.122Z,97098.61
2019-01-29T20:34:03.556Z,97087.59
2019-01-29T20:36:32.016Z,97088.69
2019-01-29T20:39:00.465Z,97083.58
2019-01-29T20:41:28.931Z,97077.38
2019-01-29T20:43:57.360Z,97073.64
2019-01-29T20:46:26.351Z,97067.48
2019-01-29T20:48:55.786Z,97058.11
2019-01-29T20:51:24.229Z,97056.49
2019-01-29T20:53:52.943Z,97061.09
2019-01-29T20:56:21.381Z,97054.92
2019-01-29T20:58:52.745Z,97051.15
2019-01-29T21:01:20.390Z,97045.79
2019-01-29T21:03:48.838Z,97048.22
2019-01-29T21:06:17.288Z,97048.22
2019-01-29T21:08:45.732Z,97036.95
2019-01-29T21:11:14.586Z,97041.24
2019-01-29T21:13:43.342Z,97037.75
2019-01-29T21:16:11.796Z,97033.48
2019-01-29T21:18:40.246Z,97031.34
2019-01-29T21:21:08.996Z,97024.08
2019-01-29T21:23:37.455Z,97026.23
2019-01-29T21:26:06.244Z,97027.84
2019-01-29T21:28:34.691Z,97023.30
2019-01-29T21:31:03.437Z,97022.48
2019-01-29T21:33:31.884Z,97022.20
2019-01-29T21:36:00.354Z,97022.48
2019-01-29T21:38:29.230Z,97025.98
2019-01-29T21:40:58.108Z,97022.48
2019-01-29T21:43:27.983Z,97018.71
2019-01-29T21:45:56.549Z,97026.20
2019-01-29T21:48:25.149Z,97018.69
2019-01-29T21:50:53.566Z,97011.73
2019-01-29T21:53:22.413Z,97010.11
2019-01-29T21:55:51.099Z,97013.84
2019-01-29T21:58:19.677Z,97009.58
2019-01-29T22:00:48.150Z,97014.12
2019-01-29T22:03:16.708Z,97004.47
2019-01-29T22:05:45.149Z,97008.47
2019-01-29T22:08:13.606Z,97006.59
2019-01-29T22:10:42.095Z,97003.09
2019-01-29T22:13:12.085Z,97003.08
2019-01-29T22:15:41.303Z,96999.59
2019-01-29T22:18:11.979Z,97003.06
2019-01-29T22:20:40.456Z,96996.09
2019-01-29T22:23:09.214Z,96990.21
2019-01-29T22:25:37.666Z,96988.63
2019-01-29T22:28:08.246Z,96991.53
2019-01-29T22:30:37.652Z,96991.28
2019-01-29T22:33:07.049Z,96978.95
2019-01-29T22:35:35.614Z,96987.48
2019-01-29T22:38:04.038Z,96983.74
2019-01-29T22:40:32.578Z,96980.24
2019-01-29T22:43:01.033Z,96981.28
2019-01-29T22:45:29.506Z,96977.80
2019-01-29T22:47:57.985Z,96973.53
2019-01-29T22:50:29.006Z,96963.36
2019-01-29T22:52:57.566Z,96964.73
2019-01-29T22:55:26.026Z,96962.34
2019-01-29T22:57:54.507Z,96961.00
2019-01-29T23:00:48.790Z,96959.91
2019-01-29T23:03:21.655Z,96960.72
2019-01-29T23:05:55.349Z,96947.88
2019-01-29T23:08:24.348Z,96955.38
2019-01-29T23:10:52.811Z,96949.48
2019-01-29T23:13:21.257Z,96944.37
2019-01-29T23:15:50.097Z,96941.45
2019-01-29T23:18:18.558Z,96946.27
2019-01-29T23:20:46.971Z,96944.12
2019-01-29T23:23:15.761Z,96939.83
2019-01-29T23:25:44.216Z,96936.09
2019-01-29T23:28:13.937Z,96934.98
2019-01-29T23:30:42.382Z,96932.30
2019-01-29T23:33:10.819Z,96921.33
2019-01-29T23:35:41.955Z,96920.75
2019-01-29T23:38:10.411Z,96926.07
2019-01-29T23:40:39.075Z,96917.27
2019-01-29T23:43:07.529Z,96901.98
2019-01-29T23:45:35.977Z,96905.75
2019-01-29T23:48:04.420Z,96901.48
2019-01-29T23:50:32.895Z,96899.89
2019-01-29T23:53:01.727Z,96902.01
2019-01-29T23:55:30.157Z,96892.42
2019-01-29T23:57:58.883Z,96890.25
